Time;durP1;ratioP1;P1;durP2;ratioP2;P2;SDS_P1;SDS_P2;PMS_P1;PMS_P2;Temp;Humidity;BMP_temperature;BMP_pressure;BME280_temperature;BME280_humidity;BME280_pressure;Samples;Min_cycle;Max_cycle;Signal;HPM_P1;HPM_P2
2023/07/25 00:01:28;;;;;;;5.53;2.38;;;14.30;99.90;;;;;;5135794;27;20648;-82
2023/07/25 00:03:54;;;;;;;6.28;2.65;;;14.20;99.90;;;;;;5139290;27;20053;-82
2023/07/25 00:06:19;;;;;;;6.82;3.00;;;14.20;99.90;;;;;;5144299;27;20496;-82
2023/07/25 00:08:47;;;;;;;12.00;3.30;;;14.20;99.90;;;;;;5136499;27;20123;-82
2023/07/25 00:11:14;;;;;;;8.80;2.90;;;14.20;99.90;;;;;;5140858;27;20619;-82
2023/07/25 00:13:39;;;;;;;11.88;3.42;;;14.10;99.90;;;;;;5128336;27;20038;-82
2023/07/25 00:16:05;;;;;;;8.27;2.92;;;14.10;99.90;;;;;;5129833;27;20035;-82
2023/07/25 00:18:30;;;;;;;7.63;2.83;;;14.10;99.90;;;;;;5130327;27;20043;-82
2023/07/25 00:20:56;;;;;;;8.73;2.90;;;14.10;99.90;;;;;;5112269;27;20031;-82
2023/07/25 00:23:22;;;;;;;8.95;2.80;;;14.00;99.90;;;;;;5100066;27;20108;-82
2023/07/25 00:25:47;;;;;;;9.43;3.30;;;14.00;99.90;;;;;;5115308;27;20186;-82
2023/07/25 00:28:13;;;;;;;7.93;3.08;;;14.00;99.90;;;;;;5131238;27;20129;-82
2023/07/25 00:30:41;;;;;;;6.10;2.88;;;14.00;99.90;;;;;;5131865;27;20113;-82
2023/07/25 00:33:07;;;;;;;12.27;3.40;;;14.00;99.90;;;;;;5129426;27;20075;-82
2023/07/25 00:35:32;;;;;;;6.70;2.78;;;14.00;99.90;;;;;;5131931;27;20089;-82
2023/07/25 00:37:58;;;;;;;10.38;3.47;;;14.00;99.90;;;;;;5138247;27;20031;-82
2023/07/25 00:40:24;;;;;;;8.82;3.20;;;13.90;99.90;;;;;;5135695;27;20023;-82
2023/07/25 00:42:55;;;;;;;13.00;4.18;;;13.90;99.90;;;;;;5137856;27;20035;-82
2023/07/25 00:45:22;;;;;;;7.65;2.70;;;13.90;99.90;;;;;;5137155;27;20121;-82
2023/07/25 00:47:49;;;;;;;8.93;3.35;;;13.80;99.90;;;;;;5136440;27;20045;-82
2023/07/25 00:50:14;;;;;;;9.00;3.20;;;13.80;99.90;;;;;;5136802;27;20038;-82
2023/07/25 00:52:40;;;;;;;10.10;3.33;;;13.80;99.90;;;;;;5141248;27;20035;-82
2023/07/25 00:55:06;;;;;;;7.93;2.55;;;13.80;99.90;;;;;;5135322;27;20045;-82
2023/07/25 00:57:32;;;;;;;6.60;2.72;;;13.70;99.90;;;;;;5133606;27;20484;-82
2023/07/25 00:59:58;;;;;;;8.30;2.80;;;13.70;99.90;;;;;;5134845;27;20083;-82
2023/07/25 01:02:24;;;;;;;6.88;2.40;;;13.70;99.90;;;;;;5132146;27;20062;-82
2023/07/25 01:04:50;;;;;;;9.40;3.00;;;13.70;99.90;;;;;;5134307;27;20082;-82
2023/07/25 01:07:16;;;;;;;10.43;3.25;;;13.80;99.90;;;;;;5133013;27;20046;-82
2023/07/25 01:09:44;;;;;;;8.65;3.75;;;13.70;99.90;;;;;;5140465;27;20483;-82
2023/07/25 01:12:11;;;;;;;8.75;2.67;;;13.70;99.90;;;;;;5124924;27;20437;-82
2023/07/25 01:14:37;;;;;;;10.82;3.85;;;13.70;99.90;;;;;;5107315;28;20039;-82
2023/07/25 01:17:11;;;;;;;11.55;3.67;;;13.60;99.90;;;;;;5094368;27;20035;-82
2023/07/25 01:19:39;;;;;;;6.82;3.60;;;13.60;99.90;;;;;;5134052;27;20079;-82
2023/07/25 01:22:06;;;;;;;8.65;3.13;;;13.70;99.90;;;;;;5115451;28;20152;-82
2023/07/25 01:24:31;;;;;;;11.73;3.20;;;13.70;99.90;;;;;;5111390;28;20118;-82
2023/07/25 01:26:57;;;;;;;11.35;3.63;;;13.60;99.90;;;;;;5110590;27;20134;-82
2023/07/25 01:29:23;;;;;;;8.20;3.40;;;13.60;99.90;;;;;;5129619;27;20121;-82
2023/07/25 01:31:48;;;;;;;8.73;3.03;;;13.80;99.90;;;;;;5130567;27;20062;-82
2023/07/25 01:34:14;;;;;;;7.43;3.22;;;13.60;99.90;;;;;;5129393;27;20035;-82
2023/07/25 01:36:39;;;;;;;8.85;2.90;;;13.60;99.90;;;;;;5129566;27;20027;-82
2023/07/25 01:39:05;;;;;;;8.90;3.25;;;13.70;99.90;;;;;;5110993;27;20420;-82
2023/07/25 01:41:31;;;;;;;9.65;3.20;;;13.60;99.90;;;;;;5131524;27;20496;-82
2023/07/25 01:43:56;;;;;;;9.13;3.22;;;13.70;99.90;;;;;;5122980;27;20065;-82
2023/07/25 01:46:22;;;;;;;11.27;3.20;;;13.70;99.90;;;;;;5132630;27;20506;-82
2023/07/25 01:48:48;;;;;;;10.07;3.20;;;13.70;99.90;;;;;;5117926;27;20039;-83
2023/07/25 01:51:13;;;;;;;11.35;4.00;;;13.70;99.90;;;;;;5118943;27;20054;-82
2023/07/25 01:53:39;;;;;;;7.82;3.13;;;13.70;99.90;;;;;;5124270;27;20038;-82
2023/07/25 01:56:04;;;;;;;11.77;3.40;;;13.60;99.90;;;;;;5109268;27;20076;-82
2023/07/25 01:58:30;;;;;;;8.48;3.38;;;13.70;99.90;;;;;;5123011;27;20118;-82
2023/07/25 02:00:59;;;;;;;10.48;3.47;;;13.90;99.90;;;;;;5123529;27;20042;-82
2023/07/25 02:03:26;;;;;;;8.30;3.08;;;13.70;99.90;;;;;;5118820;27;20051;-82
2023/07/25 02:05:52;;;;;;;11.05;3.22;;;13.70;99.90;;;;;;5141120;27;20652;-82
2023/07/25 02:08:18;;;;;;;10.57;3.53;;;13.70;99.90;;;;;;5117416;27;20501;-82
2023/07/25 02:10:43;;;;;;;6.35;2.72;;;13.70;99.90;;;;;;5118145;27;20143;-82
2023/07/25 02:13:09;;;;;;;9.05;2.63;;;13.60;99.90;;;;;;5144406;27;20389;-82
2023/07/25 02:15:36;;;;;;;9.23;2.80;;;13.70;99.90;;;;;;5136236;27;20295;-82
2023/07/25 02:18:03;;;;;;;9.95;3.63;;;13.70;99.90;;;;;;5114349;27;20042;-81
2023/07/25 02:20:32;;;;;;;9.85;3.40;;;13.70;99.90;;;;;;5121032;27;20512;-82
2023/07/25 02:22:58;;;;;;;8.98;3.28;;;13.70;99.90;;;;;;5132670;27;20493;-82
2023/07/25 02:25:25;;;;;;;11.93;3.30;;;13.80;99.90;;;;;;5132531;27;20058;-82
2023/07/25 02:27:51;;;;;;;10.88;3.45;;;13.80;99.90;;;;;;5139466;27;20380;-82
2023/07/25 02:30:17;;;;;;;8.43;3.72;;;13.80;99.90;;;;;;5118464;27;20054;-82
2023/07/25 02:32:42;;;;;;;10.88;3.80;;;13.80;99.90;;;;;;5115309;27;20043;-82
2023/07/25 02:35:08;;;;;;;7.90;3.35;;;13.80;99.90;;;;;;5113793;27;20077;-82
2023/07/25 02:37:34;;;;;;;10.68;3.30;;;13.80;99.90;;;;;;5132570;27;20042;-81
2023/07/25 02:39:59;;;;;;;6.45;2.85;;;13.80;99.90;;;;;;5133489;27;20030;-82
2023/07/25 02:42:25;;;;;;;15.82;3.80;;;13.80;99.90;;;;;;5119116;27;20184;-82
2023/07/25 02:44:51;;;;;;;10.43;3.17;;;13.80;99.90;;;;;;5118518;27;20428;-82
2023/07/25 02:47:16;;;;;;;9.40;3.53;;;13.80;99.90;;;;;;5113398;27;20043;-82
2023/07/25 02:49:42;;;;;;;7.18;2.83;;;13.70;99.90;;;;;;5138438;27;20043;-82
2023/07/25 02:52:08;;;;;;;12.13;3.05;;;13.70;99.90;;;;;;5142919;27;20037;-82
2023/07/25 02:54:33;;;;;;;7.85;2.83;;;13.80;99.90;;;;;;5142992;27;20402;-82
2023/07/25 02:56:59;;;;;;;10.73;3.53;;;13.80;99.90;;;;;;5138016;27;20033;-82
2023/07/25 02:59:24;;;;;;;10.88;3.30;;;13.80;99.90;;;;;;5141300;27;20069;-82
2023/07/25 03:01:50;;;;;;;9.63;3.83;;;13.70;99.90;;;;;;5136599;27;20123;-82
2023/07/25 03:04:16;;;;;;;11.18;3.13;;;13.80;99.90;;;;;;5144675;27;20645;-81
2023/07/25 03:06:41;;;;;;;12.75;3.25;;;13.80;99.90;;;;;;5120823;27;20178;-82
2023/07/25 03:09:07;;;;;;;8.00;3.22;;;13.80;99.90;;;;;;5122689;27;20125;-82
2023/07/25 03:11:33;;;;;;;7.82;2.88;;;13.70;99.90;;;;;;5122572;27;20043;-82
2023/07/25 03:13:58;;;;;;;8.50;2.70;;;13.70;99.90;;;;;;5122655;27;20038;-82
2023/07/25 03:16:24;;;;;;;8.60;3.08;;;13.80;99.90;;;;;;5123711;27;20037;-82
2023/07/25 03:18:50;;;;;;;7.13;2.53;;;13.70;99.90;;;;;;5118128;27;20038;-82
2023/07/25 03:21:15;;;;;;;9.30;3.15;;;13.70;99.90;;;;;;5133206;27;20035;-82
2023/07/25 03:23:41;;;;;;;7.93;3.05;;;13.80;99.90;;;;;;5117349;27;20039;-82
2023/07/25 03:26:07;;;;;;;7.85;3.10;;;13.70;99.90;;;;;;5137235;27;20106;-82
2023/07/25 03:28:32;;;;;;;8.35;2.88;;;13.70;99.90;;;;;;5122718;27;20043;-82
2023/07/25 03:30:58;;;;;;;8.43;2.95;;;13.70;99.90;;;;;;5140626;27;20045;-82
2023/07/25 03:33:24;;;;;;;11.02;2.97;;;13.70;99.90;;;;;;5134268;27;20080;-82
2023/07/25 03:35:49;;;;;;;12.05;2.95;;;13.70;99.90;;;;;;5123400;27;20038;-82
2023/07/25 03:38:15;;;;;;;9.35;2.45;;;13.70;99.90;;;;;;5130961;27;20398;-82
2023/07/25 03:40:40;;;;;;;11.13;3.40;;;13.90;99.90;;;;;;5116760;27;20039;-82
2023/07/25 03:43:06;;;;;;;9.40;2.90;;;13.70;99.90;;;;;;5118911;27;20405;-82
2023/07/25 03:45:32;;;;;;;12.43;3.17;;;13.80;99.90;;;;;;5135078;27;20047;-82
2023/07/25 03:47:57;;;;;;;8.75;2.60;;;13.80;99.90;;;;;;5130621;27;20035;-82
2023/07/25 03:50:23;;;;;;;6.13;2.45;;;13.80;99.90;;;;;;5124991;27;20074;-83
2023/07/25 03:52:48;;;;;;;6.82;3.13;;;13.90;99.90;;;;;;5135323;27;20511;-82
2023/07/25 03:55:14;;;;;;;8.07;3.00;;;13.90;99.90;;;;;;5112015;27;20092;-82
2023/07/25 03:57:40;;;;;;;7.05;2.30;;;13.90;99.90;;;;;;5131367;27;20034;-82
2023/07/25 04:00:06;;;;;;;9.10;2.78;;;13.90;99.90;;;;;;5129744;27;20091;-82
2023/07/25 04:02:31;;;;;;;11.13;2.90;;;13.90;99.90;;;;;;5131912;27;20521;-82
2023/07/25 04:04:57;;;;;;;7.47;2.53;;;13.90;99.90;;;;;;5135802;27;20064;-82
2023/07/25 04:07:23;;;;;;;10.25;3.58;;;13.90;99.90;;;;;;5116670;27;20039;-82
2023/07/25 04:09:48;;;;;;;7.38;3.08;;;14.10;99.90;;;;;;5107727;27;20039;-82
2023/07/25 04:12:14;;;;;;;7.68;3.05;;;14.00;99.90;;;;;;5119246;27;20604;-82
2023/07/25 04:14:40;;;;;;;9.00;2.80;;;14.00;99.90;;;;;;5118897;27;20039;-82
2023/07/25 04:17:06;;;;;;;6.35;2.10;;;14.00;99.90;;;;;;5116823;27;20043;-83
2023/07/25 04:19:32;;;;;;;9.35;3.28;;;14.00;99.90;;;;;;5140904;27;20038;-82
2023/07/25 04:21:58;;;;;;;9.98;2.33;;;14.00;99.90;;;;;;5136195;27;20045;-82
2023/07/25 04:24:23;;;;;;;8.57;2.47;;;14.00;99.90;;;;;;5134478;27;20039;-82
2023/07/25 04:26:49;;;;;;;9.50;2.80;;;14.00;99.90;;;;;;5138809;27;20061;-82
2023/07/25 04:29:14;;;;;;;13.07;2.95;;;14.00;99.90;;;;;;5140596;27;20489;-82
2023/07/25 04:31:40;;;;;;;10.13;2.72;;;14.00;99.90;;;;;;5141103;27;20026;-82
2023/07/25 04:34:06;;;;;;;10.57;2.80;;;14.00;99.90;;;;;;5136590;27;20074;-82
2023/07/25 04:36:31;;;;;;;10.48;3.00;;;14.00;99.90;;;;;;5132434;27;20031;-82
2023/07/25 04:38:57;;;;;;;7.32;2.47;;;14.00;99.90;;;;;;5139193;27;20519;-82
2023/07/25 04:41:23;;;;;;;9.05;2.83;;;14.00;99.90;;;;;;5120857;27;20035;-82
2023/07/25 04:43:49;;;;;;;10.38;3.20;;;14.00;99.90;;;;;;5117729;27;20042;-82
2023/07/25 04:46:14;;;;;;;9.45;2.35;;;14.00;99.90;;;;;;5119748;27;20500;-82
2023/07/25 04:48:40;;;;;;;9.27;2.85;;;14.00;99.90;;;;;;5108550;27;20063;-81
2023/07/25 04:51:06;;;;;;;12.45;3.50;;;14.00;99.90;;;;;;5117181;27;20066;-82
2023/07/25 04:53:32;;;;;;;8.68;3.17;;;14.00;99.90;;;;;;5119886;27;20099;-82
2023/07/25 04:55:58;;;;;;;7.10;2.60;;;14.00;99.90;;;;;;5136941;27;20077;-82
2023/07/25 04:58:23;;;;;;;9.85;2.55;;;14.00;99.90;;;;;;5134402;27;20063;-82
2023/07/25 05:00:49;;;;;;;9.68;3.42;;;14.00;99.90;;;;;;5119656;27;20046;-82
2023/07/25 05:03:14;;;;;;;5.88;2.60;;;14.10;99.90;;;;;;5139726;27;20488;-82
2023/07/25 05:05:41;;;;;;;8.20;2.80;;;14.00;99.90;;;;;;5122483;27;20043;-82
2023/07/25 05:08:07;;;;;;;11.27;3.67;;;14.10;99.90;;;;;;5126257;27;20465;-83
2023/07/25 05:10:35;;;;;;;8.35;3.22;;;14.00;99.90;;;;;;5139856;27;20548;-82
2023/07/25 05:13:00;;;;;;;12.27;3.75;;;14.00;99.90;;;;;;5143168;27;20103;-82
2023/07/25 05:15:26;;;;;;;7.28;2.67;;;14.00;99.90;;;;;;5122302;27;20442;-83
2023/07/25 05:17:52;;;;;;;16.17;3.97;;;14.00;99.90;;;;;;5116724;27;20534;-83
2023/07/25 05:20:18;;;;;;;5.38;2.00;;;14.00;99.90;;;;;;5137558;27;20549;-82
2023/07/25 05:22:43;;;;;;;9.23;2.38;;;14.00;99.90;;;;;;5134968;27;20035;-83
2023/07/25 05:25:09;;;;;;;14.68;3.63;;;14.00;99.90;;;;;;5125140;27;20042;-82
2023/07/25 05:27:35;;;;;;;8.50;2.80;;;14.10;99.90;;;;;;5135882;27;20026;-82
2023/07/25 05:30:00;;;;;;;7.03;2.38;;;14.00;99.90;;;;;;5133535;27;20031;-83
2023/07/25 05:32:26;;;;;;;8.75;2.88;;;14.10;99.90;;;;;;5134110;27;20049;-83
2023/07/25 05:34:52;;;;;;;8.27;2.72;;;14.10;99.90;;;;;;5142821;27;20710;-82
2023/07/25 05:37:18;;;;;;;7.75;3.17;;;14.20;99.90;;;;;;5095798;28;20073;-83
2023/07/25 05:39:44;;;;;;;8.90;2.20;;;14.10;99.90;;;;;;5115312;27;20031;-82
2023/07/25 05:42:10;;;;;;;10.77;2.75;;;14.20;99.90;;;;;;5107432;27;20087;-83
2023/07/25 05:44:35;;;;;;;10.55;2.55;;;14.20;99.90;;;;;;5111046;28;20265;-83
2023/07/25 05:47:05;;;;;;;7.13;2.50;;;14.20;99.90;;;;;;5134031;27;20439;-83
2023/07/25 05:49:31;;;;;;;10.02;2.90;;;14.20;99.90;;;;;;5115029;27;20126;-83
2023/07/25 05:51:56;;;;;;;6.95;2.30;;;14.10;99.90;;;;;;5127045;27;20067;-83
2023/07/25 05:54:22;;;;;;;10.73;2.28;;;14.20;99.90;;;;;;5141710;27;20038;-83
2023/07/25 05:56:47;;;;;;;5.28;1.92;;;14.10;99.90;;;;;;5126591;27;20031;-83
2023/07/25 05:59:13;;;;;;;8.30;2.00;;;14.10;99.90;;;;;;5128127;27;20035;-83
2023/07/25 06:01:39;;;;;;;5.80;2.15;;;14.20;99.90;;;;;;5114758;27;20489;-83
2023/07/25 06:04:06;;;;;;;11.45;1.83;;;14.10;99.90;;;;;;5137052;27;20031;-83
2023/07/25 06:06:31;;;;;;;9.18;2.22;;;14.10;99.90;;;;;;5120545;27;20408;-83
2023/07/25 06:08:57;;;;;;;6.45;2.38;;;14.20;99.90;;;;;;5141660;27;20038;-83
2023/07/25 06:11:25;;;;;;;7.00;1.90;;;14.20;99.90;;;;;;5105958;27;20054;-83
2023/07/25 06:13:52;;;;;;;10.75;2.30;;;14.20;99.90;;;;;;5102361;27;20087;-83
2023/07/25 06:16:18;;;;;;;6.60;2.20;;;14.20;99.90;;;;;;5121535;27;20058;-83
2023/07/25 06:18:44;;;;;;;9.75;2.10;;;14.30;99.90;;;;;;5137655;27;20035;-82
2023/07/25 06:21:10;;;;;;;7.53;2.08;;;14.30;99.90;;;;;;5125675;27;20035;-84
2023/07/25 06:23:36;;;;;;;8.18;1.88;;;14.30;99.90;;;;;;5119694;27;20508;-83
2023/07/25 06:26:02;;;;;;;7.38;1.60;;;14.30;99.90;;;;;;5121897;27;20039;-83
2023/07/25 06:28:27;;;;;;;11.30;1.90;;;14.30;99.90;;;;;;5111003;27;20041;-83
2023/07/25 06:30:53;;;;;;;6.95;1.48;;;14.40;99.90;;;;;;5126453;27;20049;-83
2023/07/25 06:33:19;;;;;;;7.20;2.03;;;14.40;99.90;;;;;;5123283;27;20046;-84
2023/07/25 06:35:44;;;;;;;6.78;1.58;;;14.40;99.90;;;;;;5122541;27;20389;-83
2023/07/25 06:38:10;;;;;;;9.25;1.67;;;14.50;99.90;;;;;;5122701;27;20038;-83
2023/07/25 06:40:36;;;;;;;5.57;1.20;;;14.50;99.90;;;;;;5141974;27;20130;-83
2023/07/25 06:43:02;;;;;;;5.72;1.90;;;14.50;99.90;;;;;;5144492;27;20093;-83
2023/07/25 06:45:27;;;;;;;8.10;1.48;;;14.60;99.90;;;;;;5118247;27;20478;-83
2023/07/25 06:47:53;;;;;;;7.65;1.52;;;14.60;99.90;;;;;;5118099;27;20054;-83
2023/07/25 06:50:19;;;;;;;13.18;1.23;;;14.60;99.90;;;;;;5135004;27;20043;-83
2023/07/25 06:52:44;;;;;;;6.07;1.20;;;14.70;99.90;;;;;;5139994;27;20481;-83
2023/07/25 06:55:10;;;;;;;9.15;1.85;;;14.60;99.90;;;;;;5118528;27;20142;-84
2023/07/25 06:57:36;;;;;;;5.63;1.67;;;14.70;99.90;;;;;;5117348;27;20066;-83
2023/07/25 07:00:03;;;;;;;5.40;1.45;;;14.70;99.90;;;;;;5142135;27;20113;-83
2023/07/25 07:02:28;;;;;;;8.95;1.23;;;14.80;99.90;;;;;;5135711;27;20083;-84
2023/07/25 07:04:56;;;;;;;5.00;1.13;;;14.80;99.90;;;;;;5140835;27;20484;-86
2023/07/25 07:07:22;;;;;;;4.72;1.42;;;14.90;99.90;;;;;;5141984;27;20122;-84
2023/07/25 07:09:47;;;;;;;12.27;1.05;;;14.90;99.90;;;;;;5121673;27;20118;-83
2023/07/25 07:12:14;;;;;;;7.90;1.10;;;14.90;99.90;;;;;;5134562;27;20064;-84
2023/07/25 07:14:40;;;;;;;5.38;1.20;;;14.90;99.90;;;;;;5142392;27;20045;-84
2023/07/25 07:17:05;;;;;;;7.15;1.42;;;14.90;99.90;;;;;;5139481;27;20126;-84
2023/07/25 07:19:31;;;;;;;5.43;0.80;;;15.00;99.90;;;;;;5142141;27;20122;-84
2023/07/25 07:21:57;;;;;;;4.55;0.90;;;15.10;99.90;;;;;;5120544;27;20284;-84
2023/07/25 07:24:22;;;;;;;6.88;0.65;;;15.10;99.90;;;;;;5116361;27;20043;-84
2023/07/25 07:26:48;;;;;;;4.47;0.70;;;15.20;99.90;;;;;;5100354;27;20051;-83
2023/07/25 07:29:13;;;;;;;7.93;0.90;;;15.40;99.90;;;;;;5118754;27;20034;-84
2023/07/25 07:31:39;;;;;;;5.15;0.77;;;15.80;99.90;;;;;;5121632;27;20057;-84
2023/07/25 07:34:15;;;;;;;4.18;0.70;;;15.90;99.90;;;;;;5140696;27;20683;-84
2023/07/25 07:36:44;;;;;;;4.50;0.90;;;16.10;99.90;;;;;;5118693;27;20035;-84
2023/07/25 07:39:11;;;;;;;5.25;0.98;;;16.30;99.90;;;;;;5126495;27;20485;-84
2023/07/25 07:41:36;;;;;;;7.03;0.98;;;16.40;99.90;;;;;;5105335;27;20038;-83
2023/07/25 07:44:02;;;;;;;3.75;0.77;;;16.50;99.90;;;;;;5121149;27;20166;-83
2023/07/25 07:46:32;;;;;;;5.45;0.70;;;16.60;99.90;;;;;;5122456;27;20523;-84
2023/07/25 07:48:59;;;;;;;6.03;0.90;;;16.70;99.90;;;;;;5124434;27;20162;-83
2023/07/25 07:51:25;;;;;;;6.43;1.00;;;16.70;99.90;;;;;;5106423;27;20081;-83
2023/07/25 07:53:51;;;;;;;6.35;0.77;;;16.70;99.90;;;;;;5119722;27;20046;-83
2023/07/25 07:56:17;;;;;;;3.00;0.50;;;16.80;99.90;;;;;;5118135;27;20030;-83
2023/07/25 07:58:43;;;;;;;2.17;0.80;;;16.90;99.90;;;;;;5123730;27;20397;-84
2023/07/25 08:01:16;;;;;;;4.07;0.80;;;16.90;99.90;;;;;;5102787;27;20059;-83
2023/07/25 08:03:43;;;;;;;5.57;0.70;;;17.10;99.90;;;;;;5138271;27;20106;-84
2023/07/25 08:06:09;;;;;;;3.97;0.65;;;17.10;99.90;;;;;;5140815;27;20099;-83
2023/07/25 08:08:34;;;;;;;4.20;0.50;;;17.20;99.90;;;;;;5139692;27;20681;-83
2023/07/25 08:11:00;;;;;;;3.60;0.55;;;17.30;99.90;;;;;;5141392;27;20472;-84
2023/07/25 08:13:25;;;;;;;5.90;0.75;;;17.20;99.90;;;;;;5115777;27;20508;-84
2023/07/25 08:15:51;;;;;;;2.35;0.40;;;17.00;99.90;;;;;;5107112;27;20042;-83
2023/07/25 08:18:17;;;;;;;8.52;0.63;;;16.90;99.90;;;;;;5122613;27;20509;-84
2023/07/25 08:20:44;;;;;;;4.18;0.60;;;16.90;99.90;;;;;;5103845;27;20031;-83
2023/07/25 08:23:10;;;;;;;2.35;0.50;;;16.90;99.90;;;;;;5117867;27;20701;-84
2023/07/25 08:25:38;;;;;;;3.08;0.70;;;16.80;99.90;;;;;;5139215;27;20035;-84
2023/07/25 08:28:04;;;;;;;5.10;0.75;;;16.70;99.90;;;;;;5133399;27;20087;-84
2023/07/25 08:30:29;;;;;;;3.40;0.77;;;16.60;99.90;;;;;;5132673;27;20039;-85
2023/07/25 08:32:55;;;;;;;4.38;0.60;;;16.70;99.90;;;;;;5136116;27;20074;-86
2023/07/25 08:35:21;;;;;;;4.28;0.90;;;16.80;99.90;;;;;;5120491;27;20059;-88
2023/07/25 08:37:46;;;;;;;2.75;0.70;;;16.80;99.90;;;;;;5119647;27;20476;-86
2023/07/25 08:40:12;;;;;;;3.17;0.68;;;16.80;99.90;;;;;;5133212;27;20737;-88
2023/07/25 08:42:42;;;;;;;2.47;0.60;;;16.80;99.90;;;;;;5123326;27;20473;-86
2023/07/25 08:45:09;;;;;;;3.90;0.80;;;16.90;99.90;;;;;;5137941;27;20042;-82
2023/07/25 08:47:39;;;;;;;8.43;1.05;;;17.00;99.90;;;;;;5138833;27;20038;-84
2023/07/25 08:50:11;;;;;;;6.07;0.80;;;17.20;99.90;;;;;;5133068;27;20079;-84
2023/07/25 08:52:39;;;;;;;2.97;0.57;;;17.50;99.90;;;;;;5111688;27;20042;-84
2023/07/25 08:55:05;;;;;;;2.95;0.70;;;17.60;99.90;;;;;;5134029;27;20045;-84
2023/07/25 08:57:32;;;;;;;2.40;0.85;;;17.70;99.90;;;;;;5135951;27;20385;-84
2023/07/25 08:59:58;;;;;;;3.67;0.50;;;17.50;99.90;;;;;;5129260;27;20039;-84
2023/07/25 09:02:25;;;;;;;5.55;0.90;;;17.30;99.90;;;;;;5131212;27;20058;-84
2023/07/25 09:04:53;;;;;;;6.07;0.65;;;17.20;99.90;;;;;;5107666;27;20039;-83
2023/07/25 09:07:19;;;;;;;4.28;0.60;;;17.30;99.90;;;;;;5112850;27;20038;-84
2023/07/25 09:09:44;;;;;;;4.45;0.75;;;17.50;99.90;;;;;;5111694;27;20197;-84
2023/07/25 09:12:10;;;;;;;5.18;1.00;;;17.70;99.90;;;;;;5094132;28;20039;-84
2023/07/25 09:14:41;;;;;;;4.68;0.75;;;17.90;99.90;;;;;;5123472;28;20118;-84
2023/07/25 09:17:07;;;;;;;3.92;0.60;;;17.90;99.90;;;;;;5133969;27;20027;-84
2023/07/25 09:19:33;;;;;;;4.25;0.90;;;17.70;99.90;;;;;;5095476;27;20397;-84
2023/07/25 09:22:00;;;;;;;5.30;0.80;;;17.60;99.90;;;;;;5133271;27;20122;-83
2023/07/25 09:24:39;;;;;;;2.67;0.65;;;17.50;99.90;;;;;;5115461;27;20035;-84
2023/07/25 09:27:16;;;;;;;8.38;0.88;;;17.60;99.90;;;;;;5119842;27;20122;-84
2023/07/25 09:29:42;;;;;;;5.68;0.80;;;17.70;99.90;;;;;;5115453;27;20039;-83
2023/07/25 09:32:18;;;;;;;3.67;0.70;;;18.00;99.90;;;;;;5115417;27;20043;-84
2023/07/25 09:34:45;;;;;;;4.80;0.90;;;18.20;99.90;;;;;;5115491;27;20130;-84
2023/07/25 09:37:10;;;;;;;8.07;1.17;;;18.30;99.90;;;;;;5133837;27;20053;-84
2023/07/25 09:39:36;;;;;;;7.50;0.70;;;18.30;99.90;;;;;;5133918;27;20035;-84
2023/07/25 09:42:02;;;;;;;3.80;0.75;;;18.20;99.90;;;;;;5133484;27;20068;-84
2023/07/25 09:44:44;;;;;;;4.82;0.73;;;18.30;99.90;;;;;;5101759;27;20068;-83
2023/07/25 09:47:09;;;;;;;2.45;1.15;;;18.30;99.90;;;;;;5134330;27;20035;-84
2023/07/25 09:49:35;;;;;;;5.45;0.80;;;18.30;99.90;;;;;;5116600;27;20045;-84
2023/07/25 09:52:03;;;;;;;1.98;0.70;;;18.40;99.90;;;;;;5132757;27;20031;-84
2023/07/25 09:54:29;;;;;;;3.03;0.60;;;18.60;99.90;;;;;;5119605;27;20091;-84
2023/07/25 09:56:55;;;;;;;5.45;0.65;;;18.70;99.90;;;;;;5133737;27;20031;-84
2023/07/25 09:59:22;;;;;;;6.72;0.85;;;18.80;99.90;;;;;;5132914;27;20039;-84
2023/07/25 10:01:49;;;;;;;4.45;0.60;;;18.70;99.90;;;;;;5133192;27;20141;-84
2023/07/25 10:04:16;;;;;;;5.25;0.57;;;18.50;99.90;;;;;;5133339;27;20494;-84
2023/07/25 10:06:42;;;;;;;4.35;0.77;;;18.40;99.90;;;;;;5132995;27;20031;-84
2023/07/25 10:09:09;;;;;;;3.83;0.70;;;18.30;99.90;;;;;;5132830;27;20091;-83
2023/07/25 10:11:36;;;;;;;6.72;0.80;;;18.20;99.90;;;;;;5114791;27;20043;-84
2023/07/25 10:14:02;;;;;;;7.43;1.23;;;18.40;99.90;;;;;;5113624;27;20486;-83
2023/07/25 10:16:28;;;;;;;3.72;0.70;;;18.40;99.90;;;;;;5139099;27;20050;-84
2023/07/25 10:18:57;;;;;;;3.60;0.70;;;18.40;99.90;;;;;;5115868;27;20027;-84
2023/07/25 10:21:27;;;;;;;4.30;0.60;;;18.30;99.90;;;;;;5133349;27;20050;-84
2023/07/25 10:24:01;;;;;;;4.07;0.80;;;18.30;99.90;;;;;;5132524;27;20679;-84
2023/07/25 10:26:27;;;;;;;8.27;1.55;;;18.20;99.90;;;;;;5132604;27;20561;-84
2023/07/25 10:28:53;;;;;;;4.18;0.90;;;18.20;99.90;;;;;;5132546;27;20122;-84
2023/07/25 10:31:23;;;;;;;9.13;1.10;;;18.10;99.90;;;;;;5096913;27;20042;-84
2023/07/25 10:33:58;;;;;;;4.15;0.75;;;18.00;99.90;;;;;;5113338;27;20546;-84
2023/07/25 10:36:25;;;;;;;6.47;0.90;;;18.00;99.90;;;;;;5120638;27;20035;-84
2023/07/25 10:38:52;;;;;;;5.03;0.90;;;17.90;99.90;;;;;;5115922;27;20039;-83
2023/07/25 10:41:21;;;;;;;4.10;0.82;;;17.90;99.90;;;;;;5113694;27;20070;-84
2023/07/25 10:43:52;;;;;;;5.55;0.90;;;17.90;99.90;;;;;;5114301;27;20458;-84
2023/07/25 10:46:20;;;;;;;3.92;0.90;;;18.00;99.90;;;;;;5120639;27;20050;-84
2023/07/25 10:48:47;;;;;;;4.55;0.90;;;18.10;99.90;;;;;;5097197;27;20520;-84
2023/07/25 10:51:15;;;;;;;4.97;1.10;;;18.20;99.90;;;;;;5132067;27;20031;-83
2023/07/25 10:54:01;;;;;;;2.80;0.88;;;18.30;99.90;;;;;;5112233;27;20474;-84
2023/07/25 10:56:27;;;;;;;5.20;0.80;;;18.40;99.90;;;;;;5119357;27;20039;-84
2023/07/25 10:59:12;;;;;;;2.50;0.70;;;18.60;99.90;;;;;;5135254;27;20042;-84
2023/07/25 11:01:47;;;;;;;4.90;0.82;;;18.60;99.90;;;;;;5132350;27;20130;-84
2023/07/25 11:04:42;;;;;;;4.40;0.70;;;18.60;99.90;;;;;;5112861;27;20057;-83
2023/07/25 11:07:10;;;;;;;6.65;0.77;;;18.50;99.90;;;;;;5115550;27;20055;-84
2023/07/25 11:09:43;;;;;;;7.10;1.20;;;18.60;99.90;;;;;;5096520;27;20050;-84
2023/07/25 11:12:10;;;;;;;3.70;0.70;;;18.70;99.90;;;;;;5103678;27;20046;-84
2023/07/25 11:14:45;;;;;;;5.03;0.73;;;18.80;99.90;;;;;;5113309;27;20031;-85
2023/07/25 11:17:12;;;;;;;6.07;0.88;;;19.10;99.90;;;;;;5131436;27;20084;-84
2023/07/25 11:19:38;;;;;;;6.20;0.82;;;19.40;99.90;;;;;;5131924;27;20078;-84
2023/07/25 11:22:11;;;;;;;6.65;1.10;;;19.50;99.90;;;;;;5112879;27;20062;-84
2023/07/25 11:24:46;;;;;;;2.83;0.68;;;19.60;99.90;;;;;;5119293;27;20053;-83
2023/07/25 11:27:13;;;;;;;4.05;0.85;;;19.50;99.90;;;;;;5125494;27;20055;-83
2023/07/25 11:29:39;;;;;;;5.57;0.85;;;19.30;99.90;;;;;;5131720;27;20054;-84
2023/07/25 11:32:06;;;;;;;6.88;1.10;;;19.20;99.90;;;;;;5135379;27;20058;-84
2023/07/25 11:34:31;;;;;;;2.83;0.80;;;19.20;99.90;;;;;;5114136;27;20408;-83
2023/07/25 11:36:57;;;;;;;4.15;0.80;;;19.10;99.90;;;;;;5095716;27;20118;-84
2023/07/25 11:39:23;;;;;;;5.15;0.90;;;19.00;99.90;;;;;;5113749;27;20046;-83
2023/07/25 11:41:49;;;;;;;5.18;1.13;;;19.00;99.90;;;;;;5118942;27;20037;-84
2023/07/25 11:44:17;;;;;;;3.95;0.70;;;18.90;99.90;;;;;;5112490;27;20042;-84
2023/07/25 11:46:52;;;;;;;4.13;0.90;;;19.00;99.90;;;;;;5113739;27;20043;-84
2023/07/25 11:49:19;;;;;;;4.07;0.75;;;19.30;99.90;;;;;;5113436;27;20533;-84
2023/07/25 11:51:45;;;;;;;4.80;0.70;;;19.40;99.90;;;;;;5096218;27;20035;-84
2023/07/25 11:54:11;;;;;;;5.25;0.98;;;19.40;99.90;;;;;;5114315;27;20045;-84
2023/07/25 11:56:38;;;;;;;3.28;0.60;;;19.40;99.90;;;;;;5131093;27;20039;-84
2023/07/25 11:59:03;;;;;;;4.95;1.50;;;19.30;99.90;;;;;;5130779;27;20035;-84
2023/07/25 12:01:31;;;;;;;2.63;0.50;;;19.40;99.90;;;;;;5124798;27;20043;-84
2023/07/25 12:04:00;;;;;;;5.03;0.77;;;19.40;99.90;;;;;;5137990;27;20035;-84
2023/07/25 12:06:33;;;;;;;5.45;0.93;;;19.40;99.90;;;;;;5112693;27;20402;-84
2023/07/25 12:09:00;;;;;;;4.55;0.98;;;19.30;99.90;;;;;;5111597;27;20035;-84
2023/07/25 12:11:26;;;;;;;2.90;0.60;;;19.30;99.90;;;;;;5099892;27;20039;-84
2023/07/25 12:13:55;;;;;;;3.92;0.68;;;19.30;99.90;;;;;;5096249;27;20038;-84
2023/07/25 12:16:27;;;;;;;3.83;0.60;;;19.30;99.90;;;;;;5130686;27;20110;-84
2023/07/25 12:19:21;;;;;;;2.80;0.60;;;19.30;99.90;;;;;;5134055;27;20038;-84
2023/07/25 12:21:46;;;;;;;5.20;0.70;;;19.50;99.90;;;;;;5126875;27;20085;-84
2023/07/25 12:24:14;;;;;;;5.70;0.90;;;19.50;99.90;;;;;;5132944;27;20416;-84
2023/07/25 12:26:46;;;;;;;3.30;0.65;;;19.50;99.90;;;;;;5113414;27;20478;-84
2023/07/25 12:29:17;;;;;;;5.70;0.52;;;19.50;99.90;;;;;;5130035;27;20742;-84
2023/07/25 12:31:43;;;;;;;3.38;1.08;;;19.50;99.90;;;;;;5095401;27;20163;-84
2023/07/25 12:34:09;;;;;;;3.47;0.75;;;19.50;99.90;;;;;;5132731;27;20457;-84
2023/07/25 12:36:34;;;;;;;1.75;0.73;;;19.50;99.90;;;;;;5110687;27;20079;-84
2023/07/25 12:39:00;;;;;;;3.85;0.70;;;19.60;99.90;;;;;;5112150;27;20035;-84
2023/07/25 12:41:26;;;;;;;5.30;0.60;;;19.70;99.90;;;;;;5120677;27;20477;-84
2023/07/25 12:43:51;;;;;;;5.00;0.82;;;19.90;99.90;;;;;;5130281;27;20084;-84